createdAt,value
2023-03-19T00:00:25.173Z,7.78
2023-03-19T00:02:51.854Z,7.73
2023-03-19T00:05:19.151Z,7.75
2023-03-19T00:07:45.618Z,7.73
2023-03-19T00:10:12.077Z,7.79
2023-03-19T00:12:38.426Z,7.80
2023-03-19T00:15:06.332Z,7.80
2023-03-19T00:17:33.726Z,7.81
2023-03-19T00:20:00.276Z,7.79
2023-03-19T00:22:26.643Z,7.77
2023-03-19T00:24:53.292Z,7.69
2023-03-19T00:27:19.691Z,7.69
2023-03-19T00:29:47.124Z,7.66
2023-03-19T00:32:15.046Z,7.70
2023-03-19T00:34:41.388Z,7.77
2023-03-19T00:37:07.876Z,7.76
2023-03-19T00:39:34.363Z,7.73
2023-03-19T00:42:01.181Z,7.74
2023-03-19T00:44:27.593Z,7.84
2023-03-19T00:46:54.512Z,7.87
2023-03-19T00:49:21.368Z,7.84
2023-03-19T00:51:47.890Z,7.80
2023-03-19T00:54:14.551Z,7.73
2023-03-19T00:56:40.874Z,7.70
2023-03-19T00:59:07.273Z,7.66
2023-03-19T01:01:33.907Z,7.67
2023-03-19T01:04:00.351Z,7.78
2023-03-19T01:06:26.913Z,7.77
2023-03-19T01:08:53.375Z,7.70
2023-03-19T01:11:20.808Z,7.72
2023-03-19T01:13:47.804Z,7.66
2023-03-19T01:16:14.324Z,7.56
2023-03-19T01:18:40.661Z,7.57
2023-03-19T01:21:07.025Z,7.53
2023-03-19T01:23:33.949Z,7.58
2023-03-19T01:26:00.477Z,7.57
2023-03-19T01:28:26.889Z,7.55
2023-03-19T01:30:53.252Z,7.43
2023-03-19T01:33:19.785Z,7.46
2023-03-19T01:35:47.292Z,7.50
2023-03-19T01:38:13.701Z,7.35
2023-03-19T01:40:47.679Z,7.36
2023-03-19T01:43:20.906Z,7.36
2023-03-19T01:45:53.199Z,7.42
2023-03-19T01:48:26.941Z,7.47
2023-03-19T01:50:53.745Z,7.53
2023-03-19T01:53:24.511Z,7.59
2023-03-19T01:55:55.197Z,7.67
2023-03-19T01:58:24.962Z,7.74
2023-03-19T02:00:55.603Z,7.83
2023-03-19T02:03:21.941Z,7.83
2023-03-19T02:05:50.516Z,7.87
2023-03-19T02:08:19.182Z,7.90
2023-03-19T02:10:47.801Z,7.96
2023-03-19T02:13:16.716Z,7.97
2023-03-19T02:15:43.214Z,7.97
2023-03-19T02:18:14.647Z,8.00
2023-03-19T02:20:58.570Z,7.94
2023-03-19T02:23:43.912Z,7.94
2023-03-19T02:26:14.042Z,7.95
2023-03-19T02:28:43.657Z,8.01
2023-03-19T02:31:10.769Z,8.05
2023-03-19T02:33:39.161Z,8.06
2023-03-19T02:36:10.894Z,8.04
2023-03-19T02:38:41.970Z,8.01
2023-03-19T02:41:09.037Z,8.05
2023-03-19T02:43:37.978Z,8.06
2023-03-19T02:46:07.091Z,8.04
2023-03-19T02:48:33.469Z,8.02
2023-03-19T02:51:00.164Z,8.08
2023-03-19T02:53:26.829Z,8.12
2023-03-19T02:55:53.590Z,8.09
2023-03-19T02:58:23.157Z,8.01
2023-03-19T03:00:49.501Z,7.91
2023-03-19T03:03:16.080Z,8.00
2023-03-19T03:05:42.691Z,8.01
2023-03-19T03:08:09.326Z,7.92
2023-03-19T03:10:47.312Z,7.95
2023-03-19T03:13:13.787Z,7.86
2023-03-19T03:15:40.240Z,7.91
2023-03-19T03:18:06.598Z,7.95
2023-03-19T03:20:33.181Z,7.94
2023-03-19T03:22:59.638Z,7.91
2023-03-19T03:25:26.051Z,8.00
2023-03-19T03:27:52.399Z,8.07
2023-03-19T03:30:18.964Z,8.00
2023-03-19T03:32:45.295Z,7.86
2023-03-19T03:35:12.120Z,7.85
2023-03-19T03:37:38.808Z,7.82
2023-03-19T03:40:06.431Z,7.77
2023-03-19T03:42:33.158Z,7.77
2023-03-19T03:44:59.577Z,7.74
2023-03-19T03:47:25.970Z,7.75
2023-03-19T03:49:52.405Z,7.72
2023-03-19T03:52:18.857Z,7.73
2023-03-19T03:54:46.874Z,7.70
2023-03-19T03:57:13.203Z,7.59
2023-03-19T03:59:39.670Z,7.53
2023-03-19T04:02:06.071Z,7.44
2023-03-19T04:04:32.824Z,7.50
2023-03-19T04:06:59.201Z,7.55
2023-03-19T04:09:27.850Z,7.49
2023-03-19T04:11:54.174Z,7.38
2023-03-19T04:14:20.914Z,7.32
2023-03-19T04:16:47.318Z,7.30
2023-03-19T04:19:13.834Z,7.33
2023-03-19T04:21:40.248Z,7.35
2023-03-19T04:24:06.817Z,7.25
2023-03-19T04:26:33.265Z,7.27
2023-03-19T04:28:59.623Z,7.28
2023-03-19T04:31:26.237Z,7.24
2023-03-19T04:33:52.728Z,7.11
2023-03-19T04:36:19.183Z,7.15
2023-03-19T04:38:45.650Z,7.18
2023-03-19T04:41:12.064Z,7.20
2023-03-19T04:43:38.620Z,7.09
2023-03-19T04:46:05.934Z,7.09
2023-03-19T04:48:32.497Z,7.07
2023-03-19T04:50:59.136Z,7.09
2023-03-19T04:53:25.548Z,7.12
2023-03-19T04:55:52.076Z,7.13
2023-03-19T04:58:18.456Z,7.25
2023-03-19T05:00:44.796Z,7.30
2023-03-19T05:03:11.182Z,7.29
2023-03-19T05:05:37.593Z,7.31
2023-03-19T05:08:04.129Z,7.23
2023-03-19T05:10:30.598Z,7.22
2023-03-19T05:12:56.939Z,7.24
2023-03-19T05:15:23.290Z,7.29
2023-03-19T05:17:49.837Z,7.33
2023-03-19T05:20:16.491Z,7.31
2023-03-19T05:22:42.964Z,7.32
2023-03-19T05:25:09.468Z,7.33
2023-03-19T05:27:36.314Z,7.33
2023-03-19T05:30:02.957Z,7.36
2023-03-19T05:32:29.646Z,7.37
2023-03-19T05:34:56.013Z,7.38
2023-03-19T05:37:22.442Z,7.41
2023-03-19T05:39:52.299Z,7.42
2023-03-19T05:42:18.625Z,7.43
2023-03-19T05:44:46.482Z,7.40
2023-03-19T05:47:13.046Z,7.39
2023-03-19T05:49:39.683Z,7.33
2023-03-19T05:52:06.498Z,7.28
2023-03-19T05:54:33.072Z,7.33
2023-03-19T05:56:59.495Z,7.35
2023-03-19T05:59:25.980Z,7.33
2023-03-19T06:01:52.506Z,7.28
2023-03-19T06:04:19.124Z,7.30
2023-03-19T06:06:45.617Z,7.33
2023-03-19T06:09:12.108Z,7.35
2023-03-19T06:11:38.492Z,7.35
2023-03-19T06:14:05.064Z,7.34
2023-03-19T06:16:31.699Z,7.35
2023-03-19T06:18:58.270Z,7.46
2023-03-19T06:21:24.905Z,7.55
2023-03-19T06:23:51.265Z,7.56
2023-03-19T06:26:17.679Z,7.58
2023-03-19T06:28:44.068Z,7.60
2023-03-19T06:31:10.537Z,7.58
2023-03-19T06:33:37.137Z,7.59
2023-03-19T06:36:04.070Z,7.59
2023-03-19T06:38:30.501Z,7.54
2023-03-19T06:40:57.308Z,7.48
2023-03-19T06:43:23.780Z,7.57
2023-03-19T06:45:50.622Z,7.72
2023-03-19T06:48:17.367Z,7.78
2023-03-19T06:50:45.473Z,7.78
2023-03-19T06:53:12.791Z,7.81
2023-03-19T06:55:39.126Z,7.87
2023-03-19T06:58:06.141Z,7.91
2023-03-19T07:00:33.910Z,8.08
2023-03-19T07:03:00.501Z,8.29
2023-03-19T07:05:26.857Z,8.39
2023-03-19T07:07:53.295Z,8.44
2023-03-19T07:10:20.928Z,8.61
2023-03-19T07:12:47.456Z,8.74
2023-03-19T07:15:14.545Z,8.72
2023-03-19T07:17:40.882Z,8.47
2023-03-19T07:20:07.484Z,8.29
2023-03-19T07:22:33.920Z,8.46
2023-03-19T07:25:00.253Z,8.48
2023-03-19T07:27:26.612Z,8.60
2023-03-19T07:29:52.984Z,8.74
2023-03-19T07:32:19.793Z,8.88
2023-03-19T07:34:47.225Z,9.05
2023-03-19T07:37:13.720Z,9.24
2023-03-19T07:39:40.115Z,9.35
2023-03-19T07:42:06.953Z,9.37
2023-03-19T07:44:33.362Z,9.34
2023-03-19T07:47:00.164Z,9.19
2023-03-19T07:49:26.650Z,9.13
2023-03-19T07:51:54.047Z,9.33
2023-03-19T07:54:21.094Z,9.43
2023-03-19T07:56:47.489Z,9.58
2023-03-19T07:59:13.881Z,9.73
2023-03-19T08:01:40.198Z,9.83
2023-03-19T08:04:07.325Z,10.00
2023-03-19T08:06:33.845Z,10.10
2023-03-19T08:09:00.299Z,10.09
2023-03-19T08:11:26.663Z,10.23
2023-03-19T08:13:53.927Z,10.40
2023-03-19T08:16:20.908Z,10.57
2023-03-19T08:18:47.358Z,10.57
2023-03-19T08:21:13.762Z,10.63
2023-03-19T08:23:43.317Z,10.74
2023-03-19T08:26:10.068Z,10.88
2023-03-19T08:28:36.467Z,11.04
2023-03-19T08:31:07.607Z,10.94
2023-03-19T08:33:34.251Z,10.77
2023-03-19T08:36:06.448Z,10.99
2023-03-19T08:38:33.009Z,11.21
2023-03-19T08:40:59.559Z,11.38
2023-03-19T08:43:25.948Z,11.23
2023-03-19T08:45:52.593Z,11.33
2023-03-19T08:48:19.086Z,11.30
2023-03-19T08:50:52.033Z,11.02
2023-03-19T08:53:18.455Z,10.95
2023-03-19T08:55:44.813Z,11.02
2023-03-19T08:58:11.247Z,11.15
2023-03-19T09:00:38.291Z,11.26
2023-03-19T09:03:04.668Z,11.65
2023-03-19T09:05:31.000Z,11.68
2023-03-19T09:07:57.356Z,11.79
2023-03-19T09:10:24.132Z,12.00
2023-03-19T09:12:50.525Z,12.05
2023-03-19T09:15:18.047Z,12.33
2023-03-19T09:17:44.656Z,12.21
2023-03-19T09:20:11.170Z,12.27
2023-03-19T09:22:37.874Z,12.43
2023-03-19T09:25:06.050Z,12.56
2023-03-19T09:27:32.667Z,13.01
2023-03-19T09:29:59.246Z,12.79
2023-03-19T09:35:10.834Z,13.61
2023-03-19T09:37:37.415Z,14.03
2023-03-19T09:40:04.809Z,14.54
2023-03-19T09:43:04.707Z,15.10
2023-03-19T09:45:31.744Z,15.05
2023-03-19T09:48:04.510Z,15.37
2023-03-19T09:50:33.106Z,15.33
2023-03-19T09:53:17.529Z,15.29
2023-03-19T09:55:48.256Z,16.10
2023-03-19T09:58:20.773Z,16.13
2023-03-19T10:00:53.584Z,16.27
2023-03-19T10:03:38.371Z,16.72
2023-03-19T10:06:20.123Z,16.63
2023-03-19T10:09:18.103Z,17.52
2023-03-19T10:11:44.902Z,17.41
2023-03-19T10:14:37.625Z,17.62
2023-03-19T10:17:10.753Z,18.05
2023-03-19T10:20:03.141Z,16.93
2023-03-19T10:22:39.060Z,16.54
2023-03-19T10:25:12.317Z,16.75
2023-03-19T10:27:39.002Z,16.43
2023-03-19T10:30:14.458Z,16.87
2023-03-19T10:32:44.174Z,16.67
2023-03-19T10:35:24.476Z,16.68
2023-03-19T10:37:51.292Z,17.05
2023-03-19T10:40:34.729Z,16.92
2023-03-19T10:43:14.787Z,17.11
2023-03-19T10:45:41.998Z,17.21
2023-03-19T10:48:15.509Z,17.17
2023-03-19T10:50:52.955Z,17.58
2023-03-19T10:53:19.448Z,17.60
2023-03-19T10:56:01.025Z,17.52
2023-03-19T10:58:30.540Z,16.92
2023-03-19T11:01:06.458Z,17.01
2023-03-19T11:03:37.558Z,17.36
2023-03-19T11:06:15.910Z,17.60
2023-03-19T11:08:42.669Z,17.54
2023-03-19T11:11:35.511Z,17.28
2023-03-19T11:14:20.720Z,17.16
2023-03-19T11:16:51.946Z,17.14
2023-03-19T11:19:31.007Z,17.19
2023-03-19T11:22:12.627Z,17.78
2023-03-19T11:24:41.619Z,17.72
2023-03-19T11:27:10.040Z,17.26
2023-03-19T11:29:45.312Z,17.69
2023-03-19T11:32:47.285Z,17.45
2023-03-19T11:35:21.949Z,17.65
2023-03-19T11:37:55.097Z,17.31
2023-03-19T11:40:27.413Z,17.37
2023-03-19T11:43:10.348Z,17.54
2023-03-19T11:45:59.132Z,17.62
2023-03-19T11:48:51.321Z,17.26
2023-03-19T11:51:27.017Z,17.27
2023-03-19T11:54:05.652Z,17.31
2023-03-19T11:56:47.673Z,17.24
2023-03-19T11:59:33.289Z,17.65
2023-03-19T12:02:15.174Z,17.59
2023-03-19T12:04:58.997Z,17.68
2023-03-19T12:07:48.736Z,17.52
2023-03-19T12:11:07.233Z,17.38
2023-03-19T12:14:02.881Z,18.30
2023-03-19T12:16:46.526Z,18.57
2023-03-19T12:19:49.116Z,18.96
2023-03-19T12:22:36.315Z,18.81
2023-03-19T12:25:45.307Z,18.76
2023-03-19T12:28:29.325Z,18.64
2023-03-19T12:31:23.552Z,19.21
2023-03-19T12:34:08.772Z,18.91
2023-03-19T12:36:45.830Z,18.50
2023-03-19T12:39:18.751Z,18.58
2023-03-19T12:41:47.770Z,18.15
2023-03-19T12:44:29.086Z,17.88
2023-03-19T12:47:09.681Z,17.80
2023-03-19T12:49:41.433Z,17.53
2023-03-19T12:52:19.415Z,18.10
2023-03-19T12:55:02.445Z,18.54
2023-03-19T12:57:39.655Z,19.46
2023-03-19T13:00:24.355Z,18.79
2023-03-19T13:03:01.475Z,18.98
2023-03-19T13:05:52.956Z,18.93
2023-03-19T13:08:22.391Z,18.50
2023-03-19T13:10:49.186Z,17.89
2023-03-19T13:13:33.228Z,17.31
2023-03-19T13:16:09.982Z,17.30
2023-03-19T13:19:02.713Z,17.32
2023-03-19T13:21:34.341Z,17.42
2023-03-19T13:24:16.159Z,17.71
2023-03-19T13:26:44.133Z,18.09
2023-03-19T13:29:27.964Z,17.83
2023-03-19T13:32:01.764Z,17.80
2023-03-19T13:34:33.102Z,17.67
2023-03-19T13:37:06.118Z,17.22
2023-03-19T13:39:34.297Z,17.11
2023-03-19T13:42:06.456Z,17.45
2023-03-19T13:44:35.945Z,17.53
2023-03-19T13:47:23.987Z,17.47
2023-03-19T13:50:08.963Z,17.50
2023-03-19T13:52:44.997Z,17.07
2023-03-19T13:55:26.565Z,16.70
2023-03-19T13:58:10.698Z,16.38
2023-03-19T14:00:43.149Z,16.23
2023-03-19T14:03:30.994Z,16.13
2023-03-19T14:05:59.432Z,16.14
2023-03-19T14:08:29.202Z,15.98
2023-03-19T14:10:59.154Z,15.97
2023-03-19T14:13:31.652Z,16.04
2023-03-19T14:16:15.870Z,15.74
2023-03-19T14:18:43.396Z,15.77
2023-03-19T14:21:16.251Z,15.49
2023-03-19T14:23:53.807Z,15.28
2023-03-19T14:26:25.587Z,15.22
2023-03-19T14:29:04.640Z,15.23
2023-03-19T14:31:36.942Z,15.14
2023-03-19T14:34:19.364Z,15.23
2023-03-19T14:36:52.685Z,15.24
2023-03-19T14:39:25.031Z,15.19
2023-03-19T14:42:47.261Z,15.25
2023-03-19T14:45:30.762Z,15.25
2023-03-19T14:48:17.996Z,15.29
2023-03-19T14:51:12.217Z,15.20
2023-03-19T14:53:44.859Z,15.13
2023-03-19T14:56:15.432Z,15.12
2023-03-19T14:58:49.248Z,14.77
2023-03-19T15:01:16.778Z,14.76
2023-03-19T15:03:43.274Z,14.79
2023-03-19T15:06:13.090Z,14.64
2023-03-19T15:08:41.870Z,14.57
2023-03-19T15:11:14.212Z,14.53
2023-03-19T15:13:58.942Z,14.48
2023-03-19T15:17:10.409Z,13.85
2023-03-19T15:19:40.902Z,13.38
2023-03-19T15:22:13.736Z,13.13
2023-03-19T15:24:40.746Z,12.73
2023-03-19T15:27:27.450Z,12.46
2023-03-19T15:30:02.109Z,12.38
2023-03-19T15:32:56.859Z,12.42
2023-03-19T15:35:34.158Z,12.37
2023-03-19T15:38:07.724Z,12.43
2023-03-19T15:40:36.518Z,12.33
2023-03-19T15:43:03.755Z,12.35
2023-03-19T15:45:33.062Z,12.40
2023-03-19T15:48:17.556Z,12.41
2023-03-19T15:50:47.971Z,12.45
2023-03-19T15:53:24.601Z,12.27
2023-03-19T15:55:54.889Z,12.00
2023-03-19T15:58:24.512Z,11.92
2023-03-19T16:00:53.199Z,12.00
2023-03-19T16:03:25.012Z,11.96
2023-03-19T16:06:03.457Z,12.00
2023-03-19T16:08:30.847Z,12.20
2023-03-19T16:11:37.771Z,12.24
2023-03-19T16:14:24.358Z,12.07
2023-03-19T16:16:52.004Z,12.21
2023-03-19T16:19:52.428Z,12.12
2023-03-19T16:22:25.101Z,11.93
2023-03-19T16:24:52.750Z,11.92
2023-03-19T16:27:33.931Z,11.92
2023-03-19T16:30:01.233Z,11.98
2023-03-19T16:32:30.070Z,11.99
2023-03-19T16:34:57.768Z,12.15
2023-03-19T16:37:42.853Z,12.21
2023-03-19T16:40:12.276Z,12.21
2023-03-19T16:42:49.493Z,12.24
2023-03-19T16:45:15.884Z,12.19
2023-03-19T16:47:43.602Z,12.16
2023-03-19T16:50:11.300Z,11.98
2023-03-19T16:52:40.220Z,11.74
2023-03-19T16:55:18.865Z,11.50
2023-03-19T16:57:47.430Z,11.49
2023-03-19T17:00:14.471Z,11.50
2023-03-19T17:02:40.967Z,11.47
2023-03-19T17:05:14.775Z,11.51
2023-03-19T17:07:41.415Z,11.47
2023-03-19T17:10:13.326Z,11.47
2023-03-19T17:12:40.037Z,11.43
2023-03-19T17:15:16.125Z,11.40
2023-03-19T17:17:42.766Z,11.48
2023-03-19T17:20:16.244Z,11.60
2023-03-19T17:22:42.739Z,11.55
2023-03-19T17:25:12.659Z,11.48
2023-03-19T17:27:39.381Z,11.38
2023-03-19T17:30:06.716Z,11.32
2023-03-19T17:32:33.455Z,11.29
2023-03-19T17:35:00.294Z,11.25
2023-03-19T17:37:30.879Z,11.22
2023-03-19T17:39:57.358Z,11.15
2023-03-19T17:42:26.075Z,11.10
2023-03-19T17:44:52.652Z,11.02
2023-03-19T17:47:19.972Z,11.02
2023-03-19T17:49:47.452Z,10.94
2023-03-19T17:52:16.324Z,10.89
2023-03-19T17:54:43.383Z,10.78
2023-03-19T17:57:14.642Z,10.78
2023-03-19T17:59:41.058Z,10.72
2023-03-19T18:02:31.329Z,10.72
2023-03-19T18:04:57.896Z,10.70
2023-03-19T18:07:24.361Z,10.69
2023-03-19T18:09:50.858Z,10.74
2023-03-19T18:12:17.255Z,10.73
2023-03-19T18:14:43.801Z,10.74
2023-03-19T18:17:16.734Z,10.75
2023-03-19T18:19:46.385Z,10.71
2023-03-19T18:22:15.610Z,10.75
2023-03-19T18:24:42.872Z,10.78
2023-03-19T18:27:09.472Z,10.73
2023-03-19T18:29:36.208Z,10.73
2023-03-19T18:32:10.799Z,10.74
2023-03-19T18:34:37.450Z,10.68
2023-03-19T18:37:04.023Z,10.66
2023-03-19T18:39:30.583Z,10.65
2023-03-19T18:41:57.314Z,10.62
2023-03-19T18:44:23.733Z,10.61
2023-03-19T18:46:50.605Z,10.63
2023-03-19T18:49:23.058Z,10.57
2023-03-19T18:52:01.484Z,10.56
2023-03-19T18:54:29.328Z,10.57
2023-03-19T18:56:57.116Z,10.55
2023-03-19T18:59:26.819Z,10.52
2023-03-19T19:02:21.608Z,10.38
2023-03-19T19:04:48.400Z,10.27
2023-03-19T19:07:16.187Z,10.17
2023-03-19T19:09:43.131Z,10.09
2023-03-19T19:12:13.928Z,10.03
2023-03-19T19:14:40.711Z,10.01
2023-03-19T19:17:15.747Z,10.00
2023-03-19T19:19:43.113Z,10.00
2023-03-19T19:22:17.585Z,9.94
2023-03-19T19:24:44.816Z,9.87
2023-03-19T19:27:20.816Z,9.82
2023-03-19T19:29:48.075Z,9.71
2023-03-19T19:32:26.501Z,9.67
2023-03-19T19:34:53.742Z,9.66
2023-03-19T19:37:20.290Z,9.66
2023-03-19T19:39:46.838Z,9.69
2023-03-19T19:42:18.272Z,9.71
2023-03-19T19:44:52.174Z,9.74
2023-03-19T19:47:19.010Z,9.68
2023-03-19T19:49:45.675Z,9.67
2023-03-19T19:52:17.609Z,9.75
2023-03-19T19:54:45.410Z,9.72
2023-03-19T19:57:23.206Z,9.68
2023-03-19T19:59:51.567Z,9.53
2023-03-19T20:02:28.448Z,9.47
2023-03-19T20:04:55.670Z,9.38
2023-03-19T20:07:22.132Z,9.24
2023-03-19T20:09:48.964Z,9.21
2023-03-19T20:12:25.484Z,9.26
2023-03-19T20:14:52.500Z,9.17
2023-03-19T20:17:20.105Z,9.10
2023-03-19T20:19:47.000Z,9.03
2023-03-19T20:22:13.528Z,8.96
2023-03-19T20:24:40.459Z,8.90
2023-03-19T20:27:14.946Z,8.84
2023-03-19T20:29:41.385Z,8.76
2023-03-19T20:32:26.022Z,8.69
2023-03-19T20:34:52.557Z,8.65
2023-03-19T20:37:18.908Z,8.63
2023-03-19T20:39:45.463Z,8.58
2023-03-19T20:42:15.477Z,8.66
2023-03-19T20:44:43.542Z,8.70
2023-03-19T20:47:16.228Z,8.67
2023-03-19T20:49:43.558Z,8.66
2023-03-19T20:52:10.683Z,8.64
2023-03-19T20:54:37.479Z,8.60
2023-03-19T20:57:03.887Z,8.60
2023-03-19T20:59:30.297Z,8.60
2023-03-19T21:01:56.863Z,8.63
2023-03-19T21:04:23.625Z,8.65
2023-03-19T21:06:53.646Z,8.64
2023-03-19T21:09:20.615Z,8.60
2023-03-19T21:11:47.309Z,8.53
2023-03-19T21:14:15.382Z,8.48
2023-03-19T21:16:41.823Z,8.43
2023-03-19T21:19:08.181Z,8.46
2023-03-19T21:21:37.126Z,8.47
2023-03-19T21:24:15.325Z,8.53
2023-03-19T21:26:42.830Z,8.56
2023-03-19T21:29:29.976Z,8.57
2023-03-19T21:31:56.780Z,8.57
2023-03-19T21:34:23.257Z,8.56
2023-03-19T21:36:52.212Z,8.50
2023-03-19T21:39:18.624Z,8.46
2023-03-19T21:41:46.322Z,8.41
2023-03-19T21:44:16.371Z,8.43
2023-03-19T21:46:46.218Z,8.38
2023-03-19T21:49:12.986Z,8.35
2023-03-19T21:51:39.531Z,8.29
2023-03-19T21:54:06.222Z,8.26
2023-03-19T21:56:38.326Z,8.22
2023-03-19T21:59:14.027Z,8.24
2023-03-19T22:01:40.833Z,8.22
2023-03-19T22:04:07.338Z,8.22
2023-03-19T22:06:33.959Z,8.26
2023-03-19T22:09:00.713Z,8.19
2023-03-19T22:11:30.000Z,8.19
2023-03-19T22:14:03.589Z,8.18
2023-03-19T22:16:31.897Z,8.07
2023-03-19T22:18:58.305Z,8.02
2023-03-19T22:21:24.826Z,7.97
2023-03-19T22:23:51.626Z,7.92
2023-03-19T22:26:24.069Z,7.89
2023-03-19T22:28:51.218Z,7.84
2023-03-19T22:31:17.733Z,7.83
2023-03-19T22:33:44.350Z,7.82
2023-03-19T22:36:13.249Z,7.77
2023-03-19T22:38:39.723Z,7.73
2023-03-19T22:41:15.303Z,7.72
2023-03-19T22:43:42.837Z,7.71
2023-03-19T22:46:11.826Z,7.70
2023-03-19T22:48:38.775Z,7.66
2023-03-19T22:51:06.396Z,7.67
2023-03-19T22:53:35.459Z,7.70
2023-03-19T22:56:02.764Z,7.72
2023-03-19T22:58:29.893Z,7.70
2023-03-19T23:00:56.880Z,7.71
2023-03-19T23:03:26.479Z,7.79
2023-03-19T23:05:56.320Z,7.83
2023-03-19T23:08:22.775Z,7.78
2023-03-19T23:10:50.321Z,7.76
2023-03-19T23:13:16.978Z,7.73
2023-03-19T23:15:44.624Z,7.76
2023-03-19T23:18:21.049Z,7.77
2023-03-19T23:20:48.057Z,7.79
2023-03-19T23:23:16.077Z,7.79
2023-03-19T23:25:44.287Z,7.87
2023-03-19T23:28:31.766Z,7.95
2023-03-19T23:30:58.460Z,7.96
2023-03-19T23:33:24.950Z,7.96
2023-03-19T23:35:51.402Z,7.95
2023-03-19T23:38:17.823Z,8.01
2023-03-19T23:40:44.336Z,8.02
2023-03-19T23:43:19.152Z,8.01
2023-03-19T23:45:46.484Z,8.01
2023-03-19T23:48:23.011Z,8.01
2023-03-19T23:50:49.687Z,7.99
2023-03-19T23:53:27.136Z,7.94
2023-03-19T23:56:07.191Z,7.94
2023-03-19T23:58:39.888Z,7.98
